Terminal Aerodrome Forecast
Issued by NWS Lake Charles, LA

Home | Current Version | Previous Version | Text Only | Print | Product List | Glossary On
Versions: 1 2 3 4 5 6 7 8 9 10 11 12 13 14 15 16 17 18 19 20 21
000
FTUS44 KLCH 281141 AAA
TAFLCH
TAF AMD
KLCH 281141Z 2812/2912 17011KT P6SM BKN012 OVC024
      TEMPO 2812/2815 5SM BR FEW015 OVC030
     FM281500 16015G23KT P6SM OVC025
     FM282000 16018G26KT P6SM OVC025 PROB30 2822/2903 4SM -SHRA
      OVC017
     FM290600 16018G24KT 6SM HZ BR OVC017=

USA.gov is the U.S. government's official web portal to all federal, state and local government web resources and services.